createdAt,value
2018-11-12T00:00:08.470Z,98859.30
2018-11-12T00:05:09.167Z,98859.59
2018-11-12T00:10:09.726Z,98873.66
2018-11-12T00:15:10.345Z,98886.11
2018-11-12T00:20:11.002Z,98894.58
2018-11-12T00:25:11.706Z,98883.08
2018-11-12T00:30:12.331Z,98886.51
2018-11-12T00:35:13.328Z,98887.77
2018-11-12T00:40:13.912Z,98863.48
2018-11-12T00:45:14.558Z,98862.12
2018-11-12T00:50:15.259Z,98862.30
2018-11-12T00:55:16.337Z,98867.27
2018-11-12T01:00:16.933Z,98865.64
2018-11-12T01:05:17.559Z,98875.63
2018-11-12T01:10:18.411Z,98873.60
2018-11-12T01:15:19.900Z,98878.66
2018-11-12T01:20:20.679Z,98874.12
2018-11-12T01:25:21.254Z,98885.77
2018-11-12T01:30:21.860Z,98865.86
2018-11-12T01:35:22.425Z,98855.64
2018-11-12T01:40:23.062Z,98860.48
2018-11-12T01:45:23.699Z,98864.84
2018-11-12T01:50:24.325Z,98851.59
2018-11-12T01:55:25.089Z,98850.06
2018-11-12T02:00:25.962Z,98848.63
2018-11-12T02:05:26.586Z,98845.08
2018-11-12T02:10:27.326Z,98844.56
2018-11-12T02:15:27.983Z,98851.35
2018-11-12T02:20:28.808Z,98838.87
2018-11-12T02:25:29.434Z,98841.42
2018-11-12T02:30:30.248Z,98825.11
2018-11-12T02:35:30.903Z,98837.38
2018-11-12T02:40:31.521Z,98847.48
2018-11-12T02:45:32.547Z,98839.94
2018-11-12T02:50:33.260Z,98826.10
2018-11-12T02:55:34.817Z,98810.84
2018-11-12T03:00:35.697Z,98817.52
2018-11-12T03:05:36.413Z,98809.77
2018-11-12T03:10:37.073Z,98807.91
2018-11-12T03:15:38.127Z,98808.30
2018-11-12T03:20:38.900Z,98812.89
2018-11-12T03:25:39.617Z,98799.30
2018-11-12T03:30:40.501Z,98795.75
2018-11-12T03:35:41.752Z,98802.68
2018-11-12T03:40:42.539Z,98797.65
2018-11-12T03:45:44.168Z,98806.00
2018-11-12T03:50:45.079Z,98794.52
2018-11-12T03:55:45.873Z,98762.78
2018-11-12T04:00:46.561Z,98762.91
2018-11-12T04:05:47.565Z,98758.62
2018-11-12T04:10:48.389Z,98772.03
2018-11-12T04:15:48.990Z,98768.14
2018-11-12T04:20:49.635Z,98781.67
2018-11-12T04:25:50.604Z,98775.92
2018-11-12T04:30:51.394Z,98761.72
2018-11-12T04:35:52.097Z,98761.17
2018-11-12T04:40:52.746Z,98762.84
2018-11-12T04:45:53.335Z,98770.88
2018-11-12T04:50:54.112Z,98759.06
2018-11-12T04:55:55.402Z,98758.84
2018-11-12T05:00:56.243Z,98756.36
2018-11-12T05:05:56.905Z,98756.40
2018-11-12T05:10:57.664Z,98747.76
2018-11-12T05:15:58.628Z,98750.27
2018-11-12T05:20:59.422Z,98741.55
2018-11-12T05:26:00.307Z,98748.02
2018-11-12T05:31:00.987Z,98745.27
2018-11-12T05:36:01.577Z,98753.65
2018-11-12T05:41:02.168Z,98769.45
2018-11-12T05:46:02.994Z,98754.96
2018-11-12T05:51:03.573Z,98746.66
2018-11-12T05:56:04.149Z,98753.33
2018-11-12T06:01:04.813Z,98751.41
2018-11-12T06:06:05.384Z,98753.70
2018-11-12T06:11:06.089Z,98760.21
2018-11-12T06:16:06.730Z,98771.23
2018-11-12T06:21:07.357Z,98773.80
2018-11-12T06:26:08.028Z,98793.72
2018-11-12T06:31:08.673Z,98792.78
2018-11-12T06:36:09.381Z,98788.81
2018-11-12T06:41:10.170Z,98797.53
2018-11-12T06:46:10.824Z,98800.41
2018-11-12T06:51:11.463Z,98807.53
2018-11-12T06:56:12.041Z,98805.09
2018-11-12T07:01:12.673Z,98814.49
2018-11-12T07:06:13.336Z,98819.90
2018-11-12T07:11:13.875Z,98818.55
2018-11-12T07:16:14.434Z,98827.17
2018-11-12T07:21:15.059Z,98830.91
2018-11-12T07:26:15.626Z,98824.95
2018-11-12T07:31:16.395Z,98831.11
2018-11-12T07:36:16.923Z,98825.91
2018-11-12T07:41:17.534Z,98828.95
2018-11-12T07:46:18.189Z,98827.48
2018-11-12T07:51:18.859Z,98840.48
2018-11-12T07:56:19.643Z,98838.27
2018-11-12T08:01:20.159Z,98842.74
2018-11-12T08:06:20.786Z,98840.60
2018-11-12T08:11:21.367Z,98839.00
2018-11-12T08:16:21.942Z,98829.47
2018-11-12T08:21:22.502Z,98836.89
2018-11-12T08:26:23.189Z,98849.33
2018-11-12T08:31:23.830Z,98844.87
2018-11-12T08:36:25.308Z,98860.67
2018-11-12T08:41:25.858Z,98858.42
2018-11-12T08:46:26.495Z,98863.91
2018-11-12T08:51:27.211Z,98863.32
2018-11-12T08:56:27.959Z,98876.50
2018-11-12T09:01:28.545Z,98873.45
2018-11-12T09:06:29.288Z,98864.93
2018-11-12T09:11:29.967Z,98877.34
2018-11-12T09:16:31.102Z,98868.81
2018-11-12T09:21:31.929Z,98884.02
2018-11-12T09:26:32.609Z,98891.72
2018-11-12T09:31:33.456Z,98896.28
2018-11-12T09:36:34.211Z,98899.22
2018-11-12T09:41:34.880Z,98896.18
2018-11-12T09:46:35.441Z,98900.62
2018-11-12T09:51:36.051Z,98903.87
2018-11-12T09:56:36.798Z,98895.64
2018-11-12T10:01:37.875Z,98894.44
2018-11-12T10:06:39.360Z,98885.72
2018-11-12T10:11:41.165Z,98869.28
2018-11-12T10:16:43.080Z,98877.16
2018-11-12T10:21:41.217Z,98888.72
2018-11-12T10:26:41.825Z,98888.95
2018-11-12T10:31:42.538Z,98899.23
2018-11-12T10:36:43.130Z,98893.88
2018-11-12T10:41:43.708Z,98893.99
2018-11-12T10:46:44.331Z,98888.50
2018-11-12T10:51:44.973Z,98890.59
2018-11-12T10:56:45.621Z,98897.09
2018-11-12T11:01:46.270Z,98894.52
2018-11-12T11:06:46.845Z,98898.73
2018-11-12T11:11:47.671Z,98896.16
2018-11-12T11:16:48.315Z,98894.27
2018-11-12T11:21:48.984Z,98896.34
2018-11-12T11:26:49.614Z,98896.57
2018-11-12T11:31:50.376Z,98906.28
2018-11-12T11:36:51.010Z,98893.22
2018-11-12T11:41:51.671Z,98898.63
2018-11-12T11:46:52.332Z,98903.31
2018-11-12T11:51:52.963Z,98899.86
2018-11-12T11:56:53.682Z,98902.16
2018-11-12T12:01:54.282Z,98903.73
2018-11-12T12:06:54.841Z,98898.03
2018-11-12T12:11:55.411Z,98887.97
2018-11-12T12:16:55.995Z,98896.27
2018-11-12T12:21:57.602Z,98890.53
2018-11-12T12:26:58.213Z,98897.13
2018-11-12T12:31:58.931Z,98884.73
2018-11-12T12:36:59.627Z,98893.42
2018-11-12T12:42:00.270Z,98887.72
2018-11-12T12:47:00.927Z,98887.97
2018-11-12T12:52:01.498Z,98898.54
2018-11-12T12:57:02.319Z,98880.64
2018-11-12T13:02:03.252Z,98898.95
2018-11-12T13:07:03.833Z,98896.39
2018-11-12T13:12:04.483Z,98895.33
2018-11-12T13:17:05.136Z,98901.14
2018-11-12T13:22:05.702Z,98908.90
2018-11-12T13:27:06.266Z,98900.52
2018-11-12T13:32:07.228Z,98884.38
2018-11-12T13:37:07.825Z,98893.48
2018-11-12T13:42:08.471Z,98888.30
2018-11-12T13:47:09.122Z,98879.61
2018-11-12T13:52:09.686Z,98891.34
2018-11-12T13:57:10.250Z,98895.98
2018-11-12T14:02:11.074Z,98899.69
2018-11-12T14:07:11.799Z,98900.42
2018-11-12T14:12:12.483Z,98906.05
2018-11-12T14:17:13.062Z,98910.59
2018-11-12T14:22:13.637Z,98906.62
2018-11-12T14:27:15.403Z,98896.19
2018-11-12T14:32:16.078Z,98901.34
2018-11-12T14:37:16.738Z,98911.91
2018-11-12T14:42:17.456Z,98913.32
2018-11-12T14:47:18.135Z,98896.04
2018-11-12T14:52:18.801Z,98903.90
2018-11-12T14:57:19.429Z,98920.64
2018-11-12T15:02:20.082Z,98928.08
2018-11-12T15:07:20.896Z,98950.51
2018-11-12T15:12:21.593Z,98956.20
2018-11-12T15:17:22.431Z,98951.07
2018-11-12T15:22:23.118Z,98964.27
2018-11-12T15:27:23.739Z,98957.97
2018-11-12T15:32:24.394Z,98964.27
2018-11-12T15:37:25.090Z,98958.20
2018-11-12T15:42:25.658Z,98949.19
2018-11-12T15:47:26.235Z,98961.75
2018-11-12T15:52:26.987Z,98989.55
2018-11-12T15:57:27.659Z,99051.86
2018-11-12T16:02:28.121Z,99071.09
2018-11-12T16:07:28.731Z,99068.58
2018-11-12T16:12:29.539Z,99062.95
2018-11-12T16:17:30.601Z,99054.19
2018-11-12T16:22:31.254Z,99061.49
2018-11-12T16:27:32.504Z,99072.50
2018-11-12T16:32:33.317Z,99067.38
2018-11-12T16:37:33.959Z,99083.20
2018-11-12T16:42:34.540Z,99066.11
2018-11-12T16:47:35.983Z,99076.47
2018-11-12T16:52:36.599Z,99089.95
2018-11-12T16:57:37.201Z,99090.55
2018-11-12T17:02:38.266Z,99084.92
2018-11-12T17:07:39.007Z,99092.80
2018-11-12T17:12:39.659Z,99091.80
2018-11-12T17:17:40.417Z,99080.81
2018-11-12T17:22:40.971Z,99097.35
2018-11-12T17:27:41.531Z,99100.69
2018-11-12T17:32:42.162Z,99116.91
2018-11-12T17:37:42.730Z,99114.12
2018-11-12T17:42:43.294Z,99112.37
2018-11-12T17:47:43.891Z,99138.16
2018-11-12T17:52:44.463Z,99133.28
2018-11-12T17:57:45.104Z,99135.59
2018-11-12T18:02:45.657Z,99134.44
2018-11-12T18:07:46.426Z,99133.53
2018-11-12T18:12:46.816Z,99133.00
2018-11-12T18:17:47.484Z,99148.46
2018-11-12T18:22:48.142Z,99151.46
2018-11-12T18:27:48.705Z,99166.86
2018-11-12T18:32:49.698Z,99169.49
2018-11-12T18:37:50.364Z,99177.98
2018-11-12T18:42:50.934Z,99172.13
2018-11-12T18:47:51.581Z,99168.97
2018-11-12T18:52:52.226Z,99179.86
2018-11-12T18:57:52.885Z,99192.45
2018-11-12T19:02:54.296Z,99198.28
2018-11-12T19:07:55.002Z,99215.93
2018-11-12T19:12:55.660Z,99234.53
2018-11-12T19:17:56.311Z,99228.31
2018-11-12T19:22:56.939Z,99213.54
2018-11-12T19:27:57.659Z,99197.63
2018-11-12T19:32:58.223Z,99217.84
2018-11-12T19:37:58.911Z,99216.19
2018-11-12T19:43:00.206Z,99232.36
2018-11-12T19:48:00.917Z,99243.14
2018-11-12T19:53:02.546Z,99244.05
2018-11-12T19:58:03.133Z,99234.80
2018-11-12T20:03:04.072Z,99254.56
2018-11-12T20:08:05.604Z,99242.38
2018-11-12T20:13:06.201Z,99229.91
2018-11-12T20:18:06.871Z,99237.63
2018-11-12T20:23:07.489Z,99246.41
2018-11-12T20:28:08.150Z,99280.03
2018-11-12T20:33:09.527Z,99290.73
2018-11-12T20:38:10.166Z,99289.91
2018-11-12T20:43:10.810Z,99284.11
2018-11-12T20:48:11.529Z,99274.82
2018-11-12T20:53:12.107Z,99297.43
2018-11-12T20:58:12.817Z,99278.31
2018-11-12T21:03:13.408Z,99268.16
2018-11-12T21:08:14.842Z,99283.91
2018-11-12T21:13:15.634Z,99308.07
2018-11-12T21:18:16.307Z,99321.68
2018-11-12T21:23:16.935Z,99314.40
2018-11-12T21:28:17.588Z,99321.32
2018-11-12T21:33:18.221Z,99303.69
2018-11-12T21:38:18.887Z,99297.16
2018-11-12T21:43:20.494Z,99269.70
2018-11-12T21:48:20.891Z,99276.75
2018-11-12T21:53:22.263Z,99254.47
2018-11-12T21:58:23.017Z,99259.87
2018-11-12T22:03:24.403Z,99279.06
2018-11-12T22:08:25.167Z,99295.25
2018-11-12T22:13:25.775Z,99309.47
2018-11-12T22:18:26.422Z,99328.17
2018-11-12T22:23:28.465Z,99341.05
2018-11-12T22:28:29.154Z,99349.58
2018-11-12T22:33:29.717Z,99351.89
2018-11-12T22:38:31.041Z,99345.67
2018-11-12T22:43:31.753Z,99347.13
2018-11-12T22:48:32.373Z,99339.44
2018-11-12T22:53:33.522Z,99339.16
2018-11-12T22:58:35.752Z,99352.84
2018-11-12T23:03:36.353Z,99372.70
2018-11-12T23:08:38.210Z,99385.66
2018-11-12T23:13:38.808Z,99396.00
2018-11-12T23:18:39.431Z,99412.23
2018-11-12T23:23:40.083Z,99392.92
2018-11-12T23:28:40.697Z,99385.06
2018-11-12T23:33:41.271Z,99370.00
2018-11-12T23:38:41.929Z,99353.39
2018-11-12T23:43:42.574Z,99358.08
2018-11-12T23:48:43.125Z,99351.30
2018-11-12T23:53:43.766Z,99356.10
2018-11-12T23:58:44.449Z,99355.99
